Weather History for Madisonville, KY

Change the Weather History Date:

Sunday, July 28, 2013

  Actual Average (KOWB) Record (KOWB)
Temperature  
Mean Temperature 66 °F -  
Max Temperature 79 °F 88 °F 104 °F (1952)
Min Temperature 54 °F 66 °F 52 °F (1962)
Cooling Degree Days 2    
Growing Degree Days 16 (Base 50)    
Moisture  
Dew Point 57 °F    
Average Humidity 71    
Maximum Humidity 99    
Minimum Humidity 44    
Precipitation  
Precipitation 0.00 in - - ()
Sea Level Pressure  
Sea Level Pressure 30.04 in    
Wind  
Wind Speed 3 mph (WNW)    
Max Wind Speed 8 mph    
Max Gust Speed -    
Visibility 10 miles    
Events      
Averages and records for this station are not official NWS values.
T = Trace of Precipitation, MM = Missing Value Source: NWS Daily Summary

Daily Weather History Graph

Daily Weather History Graph

Search for Another Location

Airport:

Trip Planner

Search our weather history database for the weather conditions in past years. The results will help you decide how hot, cold, wet, or windy it might be!

Date:

Astronomy

Jul. 28, 2013 Rise Set
Actual Time 5:50 AM CDT 8:00 PM CDT
Civil Twilight 5:21 AM CDT 8:29 PM CDT
Nautical Twilight 4:45 AM CDT 9:05 PM CDT
Astronomical Twilight 4:07 AM CDT 9:44 PM CDT
Moon 11:32 PM CDT (7/28) 12:22 PM CDT (7/28)
Length of Visible Light 15h 08m
Length of Day
14h 09m
Waning Gibbous, 60% of the Moon is Illuminated
Jul 28
Waning Gibbous
Jul 29
Last Quarter
Aug 6
New
Aug 14
First Quarter
Aug 20
Full

Hourly Weather History & Observations

Time (CDT) Temp. Dew Point Humidity Pressure Visibility Wind Dir Wind Speed Gust Speed Precip Events Conditions
12:15 AM 61.7 °F 57.2 °F 85% 30.01 in 10.0 mi North 4.6 mph - N/A   Clear
12:35 AM 61.3 °F 56.3 °F 83% 30.00 in 10.0 mi North 4.6 mph - N/A   Clear
12:55 AM 60.8 °F 55.9 °F 84% 30.01 in 10.0 mi North 4.6 mph - N/A   Clear
1:15 AM 60.8 °F 55.6 °F 83% 30.01 in 10.0 mi Calm Calm - N/A   Clear
1:35 AM 61.3 °F 55.0 °F 80% 30.01 in 10.0 mi Calm Calm - N/A   Clear
1:55 AM 59.9 °F 55.2 °F 84% 30.01 in 10.0 mi Calm Calm - N/A   Clear
2:15 AM 58.3 °F 55.0 °F 89% 30.00 in 10.0 mi Calm Calm - N/A   Clear
2:35 AM 57.6 °F 55.6 °F 93% 30.01 in 10.0 mi Calm Calm - N/A   Clear
2:55 AM 57.9 °F 55.8 °F 92% 30.00 in 10.0 mi Calm Calm - N/A   Clear
3:15 AM 57.7 °F 55.2 °F 91% 30.00 in 10.0 mi Calm Calm - N/A   Clear
3:35 AM 56.7 °F 55.8 °F 97% 30.01 in 10.0 mi Calm Calm - N/A   Clear
3:55 AM 55.0 °F 54.0 °F 96% 30.01 in 10.0 mi SW 4.6 mph - N/A   Clear
4:15 AM 55.4 °F 54.7 °F 97% 30.02 in 10.0 mi WSW 3.5 mph - N/A   Clear
4:35 AM 55.4 °F 54.7 °F 97% 30.01 in 10.0 mi Calm Calm - N/A   Clear
4:55 AM 55.0 °F 54.3 °F 97% 30.02 in 10.0 mi Calm Calm - N/A   Clear
5:15 AM 55.8 °F 55.2 °F 98% 30.03 in 10.0 mi SW 3.5 mph - N/A   Clear
5:35 AM 54.5 °F 54.1 °F 99% 30.03 in 10.0 mi Calm Calm - N/A   Clear
5:55 AM 55.2 °F 54.9 °F 99% 30.03 in 10.0 mi Calm Calm - N/A   Clear
6:15 AM 54.3 °F 53.8 °F 98% 30.03 in 10.0 mi Calm Calm - N/A   Clear
6:35 AM 55.4 °F 54.9 °F 98% 30.04 in 10.0 mi Calm Calm - N/A   Clear
6:55 AM 57.4 °F 56.5 °F 97% 30.04 in 10.0 mi Calm Calm - N/A   Clear
7:15 AM 59.7 °F 58.6 °F 96% 30.04 in 10.0 mi Calm Calm - N/A   Clear
7:35 AM 61.7 °F 59.2 °F 91% 30.06 in 10.0 mi Calm Calm - N/A   Clear
7:55 AM 63.5 °F 59.5 °F 87% 30.06 in 10.0 mi SW 3.5 mph - N/A   Clear
8:15 AM 65.5 °F 58.6 °F 79% 30.06 in 10.0 mi WSW 4.6 mph - N/A   Clear
8:35 AM 66.6 °F 56.8 °F 71% 30.07 in 10.0 mi South 3.5 mph - N/A   Clear
8:55 AM 67.5 °F 55.2 °F 65% 30.06 in 10.0 mi SSW 3.5 mph - N/A   Clear
9:15 AM 68.9 °F 55.4 °F 62% 30.07 in 10.0 mi South 4.6 mph - N/A   Clear
9:35 AM 70.3 °F 54.1 °F 56% 30.06 in 10.0 mi SSW 3.5 mph - N/A   Clear
9:55 AM 71.1 °F 52.7 °F 52% 30.07 in 10.0 mi Calm Calm - N/A   Clear
10:15 AM 71.6 °F 52.5 °F 51% 30.07 in 10.0 mi WSW 4.6 mph - N/A   Clear
10:35 AM 72.3 °F 53.4 °F 51% 30.07 in 10.0 mi West 3.5 mph - N/A   Clear
10:55 AM 73.2 °F 54.0 °F 51% 30.07 in 10.0 mi NW 5.8 mph - N/A   Clear
11:15 AM 73.8 °F 53.2 °F 49% 30.07 in 10.0 mi NW 5.8 mph - N/A   Clear
11:35 AM 74.5 °F 53.2 °F 47% 30.07 in 10.0 mi NW 5.8 mph - N/A   Clear
11:55 AM 74.7 °F 54.0 °F 48% 30.06 in 10.0 mi WNW 8.1 mph - N/A   Clear
12:15 PM 74.5 °F 52.0 °F 45% 30.06 in 10.0 mi North 6.9 mph - N/A   Clear
12:35 PM 74.7 °F 54.1 °F 49% 30.06 in 10.0 mi West 8.1 mph - N/A   Clear
12:55 PM 75.4 °F 54.0 °F 47% 30.06 in 10.0 mi NW 5.8 mph - N/A   Clear
1:15 PM 75.7 °F 54.7 °F 48% 30.05 in 10.0 mi NW 4.6 mph - N/A   Scattered Clouds
1:35 PM 76.1 °F 54.3 °F 47% 30.05 in 10.0 mi WNW 8.1 mph - N/A   Clear
1:55 PM 76.5 °F 53.6 °F 45% 30.04 in 10.0 mi Calm Calm - N/A   Scattered Clouds
2:15 PM 76.6 °F 54.1 °F 46% 30.04 in 10.0 mi NW 3.5 mph - N/A   Scattered Clouds
2:35 PM 76.8 °F 53.4 °F 44% 30.04 in 10.0 mi West 4.6 mph - N/A   Clear
2:55 PM 77.7 °F 54.3 °F 44% 30.04 in 10.0 mi West 3.5 mph - N/A   Clear
3:15 PM 77.9 °F 55.2 °F 45% 30.03 in 10.0 mi WNW 4.6 mph - N/A   Clear
3:35 PM 78.1 °F 55.4 °F 45% 30.03 in 10.0 mi NW 4.6 mph - N/A   Clear
3:55 PM 78.6 °F 55.9 °F 46% 30.03 in 10.0 mi West 6.9 mph - N/A   Clear
4:15 PM 78.8 °F 55.6 °F 45% 30.03 in 10.0 mi NW 5.8 mph - N/A   Clear
4:35 PM 78.8 °F 56.1 °F 46% 30.03 in 10.0 mi WNW 3.5 mph - N/A   Clear
4:55 PM 79.5 °F 56.3 °F 45% 30.03 in 10.0 mi NW 6.9 mph - N/A   Scattered Clouds
5:15 PM 77.9 °F 55.6 °F 46% 30.03 in 10.0 mi WNW 5.8 mph - N/A   Scattered Clouds
5:35 PM 78.1 °F 56.8 °F 48% 30.03 in 10.0 mi SW 3.5 mph - N/A   Scattered Clouds
5:55 PM 77.0 °F 55.2 °F 47% 30.04 in 10.0 mi NW 4.6 mph - N/A   Scattered Clouds
6:15 PM 76.6 °F 55.2 °F 47% 30.04 in 10.0 mi WNW 6.9 mph - N/A   Scattered Clouds
6:35 PM 76.1 °F 58.1 °F 54% 30.05 in 10.0 mi WNW 3.5 mph - N/A   Scattered Clouds
6:55 PM 74.8 °F 59.4 °F 58% 30.05 in 10.0 mi WNW 3.5 mph - N/A   Clear
7:15 PM 74.7 °F 60.3 °F 61% 30.05 in 10.0 mi Calm Calm - N/A   Clear
7:35 PM 74.1 °F 61.9 °F 65% 30.06 in 10.0 mi Calm Calm - N/A   Clear
7:55 PM 72.0 °F 63.1 °F 74% 30.06 in 10.0 mi Calm Calm - N/A   Clear
8:15 PM 70.9 °F 60.3 °F 69% 30.06 in 10.0 mi Calm Calm - N/A   Clear
8:35 PM 68.9 °F 64.0 °F 84% 30.06 in 10.0 mi Calm Calm - N/A   Clear
8:55 PM 68.2 °F 62.2 °F 81% 30.07 in 10.0 mi Calm Calm - N/A   Clear
9:15 PM 66.9 °F 60.4 °F 80% 30.07 in 10.0 mi Calm Calm - N/A   Clear
9:35 PM 66.4 °F 60.1 °F 80% 30.08 in 10.0 mi Calm Calm - N/A   Clear
9:55 PM 65.7 °F 61.7 °F 87% 30.08 in 10.0 mi Calm Calm - N/A   Clear
10:15 PM 64.8 °F 61.5 °F 89% 30.08 in 10.0 mi Calm Calm - N/A   Clear
10:35 PM 64.4 °F 62.2 °F 93% 30.08 in 10.0 mi Calm Calm - N/A   Clear
10:55 PM 63.9 °F 62.1 °F 94% 30.08 in 10.0 mi Calm Calm - N/A   Clear
11:15 PM 63.1 °F 62.1 °F 96% 30.08 in 10.0 mi Calm Calm - N/A   Clear
11:35 PM 63.5 °F 62.2 °F 96% 30.09 in 10.0 mi Calm Calm - N/A   Clear
11:55 PM 61.7 °F 61.3 °F 99% 30.09 in 10.0 mi Calm Calm - N/A   Clear